Terminal Aerodrome Forecast
Issued by NWS

Home | Current Version | Previous Version | Text Only | Print | Product List | Glossary Off
Versions: 1 2 3 4 5 6 7 8 9 10 11 12 13 14 15 16 17 18 19 20 21 22 23 24 25 26 27 28 29 30 31 32 33 34 35
000 FTUS41 KBOX 272023 AAA TAFBED TAF AMD KBED 272023Z 2720/2818 32010G20KT P6SM BKN045 FM272100 34008KT P6SM -RA OVC045 FM280100 35006KT P6SM OVC035 FM280600 36007G17KT P6SM BKN030 FM281400 36011G21KT P6SM BKN040=

USA.gov is the U.S. government's official web portal to all federal, state and local government web resources and services.